Time;durP1;ratioP1;P1;durP2;ratioP2;P2;SDS_P1;SDS_P2;PMS_P1;PMS_P2;Temp;Humidity;BMP_temperature;BMP_pressure;BME280_temperature;BME280_humidity;BME280_pressure;Samples;Min_cycle;Max_cycle;Signal;HPM_P1;HPM_P2
2022/05/15 00:02:15;;;;;;;7.77;6.73;;;13.00;87.40;;;;;;4986628;28;20482;-54
2022/05/15 00:04:41;;;;;;;8.67;7.67;;;12.90;87.10;;;;;;4975814;28;20477;-54
2022/05/15 00:07:08;;;;;;;14.83;9.17;;;12.90;86.80;;;;;;4981489;28;20487;-54
2022/05/15 00:09:35;;;;;;;7.00;6.30;;;12.90;87.50;;;;;;4981858;28;20490;-54
2022/05/15 00:12:03;;;;;;;8.93;7.93;;;12.90;86.80;;;;;;4987754;28;20472;-56
2022/05/15 00:14:30;;;;;;;8.00;7.07;;;12.80;87.80;;;;;;4987467;28;20483;-54
2022/05/15 00:16:56;;;;;;;11.03;7.50;;;12.60;87.00;;;;;;4980055;28;20490;-53
2022/05/15 00:19:25;;;;;;;11.10;7.67;;;12.50;88.00;;;;;;4986998;28;20487;-54
2022/05/15 00:21:52;;;;;;;9.87;7.27;;;12.40;88.00;;;;;;4982961;28;20496;-54
2022/05/15 00:24:18;;;;;;;12.20;7.43;;;12.30;87.50;;;;;;4985929;28;20487;-54
2022/05/15 00:26:45;;;;;;;9.07;7.67;;;12.30;87.60;;;;;;4988839;28;20483;-54
2022/05/15 00:29:12;;;;;;;6.13;5.53;;;12.30;87.20;;;;;;4991548;28;20490;-55
2022/05/15 00:31:39;;;;;;;6.87;6.13;;;12.40;86.40;;;;;;4986942;28;20495;-55
2022/05/15 00:34:06;;;;;;;8.50;5.40;;;12.30;85.80;;;;;;4981732;28;20994;-55
2022/05/15 00:36:34;;;;;;;8.83;5.70;;;12.20;85.60;;;;;;4979228;28;21171;-55
2022/05/15 00:39:01;;;;;;;9.40;5.97;;;12.20;85.90;;;;;;4986867;28;20955;-55
2022/05/15 00:41:29;;;;;;;8.17;6.10;;;12.00;86.60;;;;;;4982874;28;20807;-55
2022/05/15 00:43:57;;;;;;;7.10;6.20;;;12.00;86.50;;;;;;4981178;28;20850;-55
2022/05/15 00:46:28;;;;;;;14.73;9.93;;;12.00;86.80;;;;;;4986362;28;20476;-55
2022/05/15 00:48:57;;;;;;;7.87;6.33;;;12.00;87.00;;;;;;4986395;28;21420;-55
2022/05/15 00:51:27;;;;;;;8.27;6.10;;;12.00;86.50;;;;;;4992804;28;20491;-55
2022/05/15 00:54:01;;;;;;;7.00;6.30;;;12.00;86.10;;;;;;4990377;28;20508;-55
2022/05/15 00:56:32;;;;;;;7.60;6.37;;;11.90;86.10;;;;;;4986376;28;20536;-55
2022/05/15 00:59:05;;;;;;;7.90;6.97;;;11.90;85.50;;;;;;4986383;28;20494;-55
2022/05/15 01:01:32;;;;;;;7.20;6.50;;;11.90;85.60;;;;;;4983523;28;20490;-55
2022/05/15 01:04:01;;;;;;;6.37;5.30;;;11.80;86.20;;;;;;4984499;28;21022;-55
2022/05/15 01:06:29;;;;;;;8.50;6.07;;;11.80;85.80;;;;;;4995820;28;20488;-56
2022/05/15 01:08:57;;;;;;;8.83;6.67;;;11.80;86.10;;;;;;4990008;28;20550;-56
2022/05/15 01:11:25;;;;;;;6.73;5.70;;;11.70;86.10;;;;;;4983379;28;20493;-55
2022/05/15 01:13:53;;;;;;;17.10;6.60;;;11.60;86.00;;;;;;4994223;28;20544;-55
2022/05/15 01:16:23;;;;;;;16.60;11.80;;;11.60;86.20;;;;;;4975128;28;20839;-55
2022/05/15 01:18:49;;;;;;;9.90;7.20;;;11.70;86.20;;;;;;4996405;28;20863;-55
2022/05/15 01:21:23;;;;;;;8.20;6.37;;;11.50;86.60;;;;;;4986233;28;20485;-55
2022/05/15 01:23:51;;;;;;;7.80;6.10;;;11.40;86.10;;;;;;4989874;28;20494;-55
2022/05/15 01:26:18;;;;;;;22.10;9.60;;;11.40;87.00;;;;;;4985055;28;20822;-55
2022/05/15 01:28:45;;;;;;;53.43;35.50;;;11.40;86.80;;;;;;4991080;28;20482;-55
2022/05/15 01:31:13;;;;;;;6.80;5.53;;;11.50;86.90;;;;;;4986889;28;20490;-55
2022/05/15 01:33:40;;;;;;;10.53;6.00;;;11.30;85.70;;;;;;4988497;28;20475;-55
2022/05/15 01:36:08;;;;;;;9.03;5.40;;;11.20;86.00;;;;;;4987692;28;20482;-56
2022/05/15 01:38:36;;;;;;;9.33;6.40;;;11.00;86.80;;;;;;4990392;28;20533;-55
2022/05/15 01:41:03;;;;;;;13.27;6.80;;;10.90;86.80;;;;;;4987676;28;20490;-55
2022/05/15 01:43:30;;;;;;;6.47;5.80;;;10.90;87.20;;;;;;4981599;28;20561;-56
2022/05/15 01:45:58;;;;;;;11.27;7.50;;;10.90;87.50;;;;;;4987519;28;20483;-56
2022/05/15 01:48:25;;;;;;;9.73;6.10;;;10.90;87.50;;;;;;4985500;28;20566;-56
2022/05/15 01:50:52;;;;;;;6.67;5.97;;;10.90;87.20;;;;;;4991526;28;20520;-56
2022/05/15 01:53:19;;;;;;;10.87;6.83;;;10.80;86.60;;;;;;4991160;28;20905;-55
2022/05/15 01:55:47;;;;;;;10.27;7.87;;;10.80;86.90;;;;;;4987826;28;20479;-55
2022/05/15 01:58:13;;;;;;;10.13;8.20;;;10.60;88.40;;;;;;4988705;28;20533;-55
2022/05/15 02:00:40;;;;;;;7.57;6.80;;;10.50;89.50;;;;;;4999516;28;20499;-55
2022/05/15 02:03:07;;;;;;;10.33;6.90;;;10.60;89.30;;;;;;5013372;28;20482;-55
2022/05/15 02:05:34;;;;;;;10.97;7.23;;;10.40;88.10;;;;;;5008512;28;20484;-56
2022/05/15 02:08:01;;;;;;;8.80;6.03;;;10.50;87.50;;;;;;5007978;28;20912;-56
2022/05/15 02:10:28;;;;;;;12.53;7.80;;;10.50;88.10;;;;;;5000541;28;21302;-55
2022/05/15 02:12:56;;;;;;;14.50;6.13;;;10.60;88.40;;;;;;5009221;28;20844;-55
2022/05/15 02:15:24;;;;;;;9.13;5.70;;;10.60;88.00;;;;;;4989603;28;20834;-55
2022/05/15 02:17:52;;;;;;;6.33;5.73;;;10.60;87.80;;;;;;5013125;28;20481;-54
2022/05/15 02:20:19;;;;;;;8.33;6.83;;;10.60;87.40;;;;;;5007109;28;20483;-55
2022/05/15 02:22:46;;;;;;;7.70;6.07;;;10.50;86.80;;;;;;4995887;28;20569;-55
2022/05/15 02:25:14;;;;;;;17.50;7.00;;;10.50;86.60;;;;;;5003402;28;20514;-55
2022/05/15 02:27:41;;;;;;;6.83;6.13;;;10.50;86.60;;;;;;4992091;28;20491;-56
2022/05/15 02:30:11;;;;;;;6.80;5.73;;;10.50;86.60;;;;;;5018563;28;20483;-55
2022/05/15 02:32:38;;;;;;;6.23;5.50;;;10.50;86.80;;;;;;4996002;28;20479;-56
2022/05/15 02:35:05;;;;;;;17.37;9.97;;;10.50;86.80;;;;;;5003034;28;20489;-56
2022/05/15 02:37:32;;;;;;;33.47;20.87;;;10.50;86.80;;;;;;4996376;28;20567;-56
2022/05/15 02:39:59;;;;;;;15.60;10.60;;;10.50;86.30;;;;;;5005340;28;20488;-56
2022/05/15 02:42:26;;;;;;;10.30;7.00;;;10.50;86.30;;;;;;5006722;28;20559;-56
2022/05/15 02:44:53;;;;;;;7.03;6.23;;;10.40;86.10;;;;;;5013634;28;20487;-55
2022/05/15 02:47:21;;;;;;;6.47;5.70;;;10.20;86.60;;;;;;5003884;28;20568;-49
2022/05/15 02:52:32;;;;;;;8.83;6.80;;;10.20;86.50;;;;;;5012536;28;20502;-49
2022/05/15 02:54:58;;;;;;;8.83;6.23;;;10.00;86.50;;;;;;5002258;28;20567;-48
2022/05/15 02:57:25;;;;;;;6.27;5.60;;;9.90;88.20;;;;;;5012481;28;20510;-48
2022/05/15 02:59:52;;;;;;;6.93;6.03;;;9.90;88.00;;;;;;4997875;28;20511;-48
2022/05/15 03:02:19;;;;;;;14.70;6.93;;;9.90;88.30;;;;;;5003826;28;20493;-49
2022/05/15 03:04:49;;;;;;;18.17;13.87;;;10.00;87.60;;;;;;5007716;28;20484;-48
2022/05/15 03:07:16;;;;;;;8.10;7.20;;;10.00;87.10;;;;;;5002456;28;20535;-51
2022/05/15 03:09:43;;;;;;;8.47;6.57;;;10.00;87.10;;;;;;5006092;28;20484;-48
2022/05/15 03:12:10;;;;;;;8.53;6.47;;;10.00;86.70;;;;;;5000383;28;21026;-49
2022/05/15 03:14:37;;;;;;;7.17;5.90;;;9.90;88.10;;;;;;5020224;28;20478;-48
2022/05/15 03:17:04;;;;;;;7.57;6.80;;;9.90;87.70;;;;;;5005529;28;20756;-49
2022/05/15 03:19:30;;;;;;;10.60;7.70;;;9.90;87.70;;;;;;5003384;28;20845;-49
2022/05/15 03:21:58;;;;;;;8.30;5.60;;;9.90;87.70;;;;;;5002902;28;20878;-49
2022/05/15 03:24:25;;;;;;;16.00;6.17;;;9.90;87.40;;;;;;5002411;28;20475;-48
2022/05/15 03:26:52;;;;;;;7.83;6.80;;;9.90;87.40;;;;;;4998237;28;20495;-49
2022/05/15 03:29:20;;;;;;;8.40;7.03;;;9.90;87.40;;;;;;4996983;28;20475;-49
2022/05/15 03:31:47;;;;;;;11.57;8.73;;;9.90;87.30;;;;;;5006904;28;20478;-48
2022/05/15 03:34:16;;;;;;;7.93;6.60;;;10.00;85.70;;;;;;5009898;28;21147;-49
2022/05/15 03:36:45;;;;;;;7.73;6.80;;;10.00;86.30;;;;;;5007540;28;20482;-49
2022/05/15 03:39:14;;;;;;;6.70;6.00;;;9.90;86.80;;;;;;5009337;28;20489;-49
2022/05/15 03:41:41;;;;;;;6.30;5.70;;;9.90;86.50;;;;;;5014200;28;20491;-49
2022/05/15 03:44:09;;;;;;;6.03;5.20;;;9.80;87.80;;;;;;5018129;28;20992;-49
2022/05/15 03:46:36;;;;;;;9.57;7.40;;;9.80;87.20;;;;;;5012670;28;20497;-48
2022/05/15 03:49:04;;;;;;;7.87;6.10;;;9.80;87.60;;;;;;5007084;28;20476;-49
2022/05/15 03:51:30;;;;;;;10.80;6.70;;;9.80;87.40;;;;;;5018467;28;21016;-48
2022/05/15 03:53:57;;;;;;;10.00;7.13;;;9.70;86.90;;;;;;5019235;28;20464;-48
2022/05/15 03:59:06;;;;;;;9.80;8.03;;;9.60;87.10;;;;;;5007081;28;20915;-49
2022/05/15 04:01:33;;;;;;;7.47;5.83;;;9.60;87.60;;;;;;5012875;28;20518;-49
2022/05/15 04:04:00;;;;;;;6.83;6.13;;;9.70;87.30;;;;;;5017663;28;20507;-48
2022/05/15 04:06:28;;;;;;;10.83;5.90;;;9.80;87.10;;;;;;5011988;28;20482;-48
2022/05/15 04:08:54;;;;;;;9.67;5.73;;;9.90;87.00;;;;;;5017705;28;20477;-49
2022/05/15 04:11:21;;;;;;;6.20;5.70;;;9.90;86.50;;;;;;5015132;28;20494;-49
2022/05/15 04:13:49;;;;;;;7.70;6.00;;;9.90;86.40;;;;;;5013906;28;20479;-49
2022/05/15 04:16:16;;;;;;;8.43;6.30;;;9.90;87.00;;;;;;5015925;28;20517;-49
2022/05/15 04:18:43;;;;;;;7.80;6.30;;;9.80;86.90;;;;;;5018473;28;20864;-49
2022/05/15 04:21:10;;;;;;;8.00;6.73;;;9.60;87.30;;;;;;5019554;28;20475;-48
2022/05/15 04:23:37;;;;;;;8.20;6.83;;;9.40;87.90;;;;;;5017763;28;20875;-48
2022/05/15 04:26:03;;;;;;;8.03;6.77;;;9.40;88.40;;;;;;5019125;28;20473;-48
2022/05/15 04:28:30;;;;;;;10.00;6.87;;;9.50;88.60;;;;;;5021031;28;20986;-48
2022/05/15 04:30:58;;;;;;;10.27;7.63;;;9.50;89.10;;;;;;5021027;28;20486;-49
2022/05/15 04:33:25;;;;;;;9.87;6.33;;;9.60;88.80;;;;;;5022175;28;20555;-48
2022/05/15 04:35:52;;;;;;;8.00;5.73;;;9.70;88.50;;;;;;5012557;28;20577;-49
2022/05/15 04:38:18;;;;;;;8.40;7.00;;;9.70;88.00;;;;;;5027644;28;21114;-49
2022/05/15 04:40:45;;;;;;;7.57;6.40;;;9.70;88.40;;;;;;5021743;28;20484;-49
2022/05/15 04:43:12;;;;;;;7.23;6.00;;;9.70;88.70;;;;;;5019554;28;20491;-50
2022/05/15 04:45:38;;;;;;;11.17;6.70;;;9.70;88.90;;;;;;5021127;28;20475;-48
2022/05/15 04:48:10;;;;;;;14.30;6.40;;;9.80;89.10;;;;;;5018998;28;21232;-48
2022/05/15 04:50:37;;;;;;;11.20;7.40;;;9.80;89.30;;;;;;5020874;28;20880;-49
2022/05/15 04:53:04;;;;;;;8.77;7.87;;;9.90;90.00;;;;;;5021076;28;20835;-49
2022/05/15 04:55:30;;;;;;;9.73;7.93;;;9.90;90.20;;;;;;5019448;28;20491;-48
2022/05/15 04:57:57;;;;;;;14.40;11.07;;;9.90;90.40;;;;;;5022143;28;20491;-49
2022/05/15 05:00:24;;;;;;;24.77;18.60;;;10.00;90.00;;;;;;5020964;28;20481;-48
2022/05/15 05:02:51;;;;;;;12.07;10.80;;;10.20;90.10;;;;;;5020307;28;20863;-49
2022/05/15 05:05:19;;;;;;;12.40;9.40;;;10.40;90.20;;;;;;5020016;28;21279;-49
2022/05/15 05:07:46;;;;;;;16.60;8.03;;;10.50;90.10;;;;;;5021433;28;20575;-49
2022/05/15 05:10:14;;;;;;;34.47;22.47;;;10.60;90.10;;;;;;5021596;28;20935;-48
2022/05/15 05:12:41;;;;;;;19.70;14.63;;;10.80;90.70;;;;;;5020598;28;20475;-49
2022/05/15 05:15:12;;;;;;;30.97;23.30;;;10.90;91.40;;;;;;5021317;28;20492;-48
2022/05/15 05:17:38;;;;;;;27.53;17.40;;;11.10;91.90;;;;;;5021995;28;20961;-48
2022/05/15 05:20:06;;;;;;;14.27;11.13;;;11.40;92.20;;;;;;5021141;28;20985;-48
2022/05/15 05:22:34;;;;;;;15.13;11.90;;;11.60;92.40;;;;;;5021462;28;20491;-49
2022/05/15 05:25:01;;;;;;;17.30;12.93;;;11.90;92.60;;;;;;5019049;28;20484;-49
2022/05/15 05:27:28;;;;;;;13.17;9.13;;;12.20;92.80;;;;;;5021245;28;20492;-49
2022/05/15 05:29:54;;;;;;;17.87;9.27;;;12.40;92.90;;;;;;5021537;28;20543;-48
2022/05/15 05:32:21;;;;;;;10.20;8.77;;;12.60;92.70;;;;;;5021814;28;20500;-49
2022/05/15 05:34:48;;;;;;;13.33;8.47;;;12.80;92.80;;;;;;5016216;28;20505;-49
2022/05/15 05:37:17;;;;;;;17.10;8.40;;;13.00;92.80;;;;;;5021110;28;20495;-49
2022/05/15 05:39:45;;;;;;;9.60;7.33;;;13.10;92.70;;;;;;5007240;28;20487;-49
2022/05/15 05:42:12;;;;;;;8.93;7.97;;;13.30;92.50;;;;;;5009933;28;21003;-49
2022/05/15 05:44:38;;;;;;;10.10;7.33;;;13.50;92.30;;;;;;5019671;28;20917;-49
2022/05/15 05:47:06;;;;;;;14.43;7.93;;;13.60;92.30;;;;;;5012708;28;20941;-49
2022/05/15 05:49:33;;;;;;;11.00;7.67;;;13.70;92.00;;;;;;5017566;28;20891;-49
2022/05/15 05:51:59;;;;;;;9.43;7.97;;;13.80;91.90;;;;;;5012313;28;21231;-49
2022/05/15 05:54:26;;;;;;;9.70;7.90;;;14.00;91.80;;;;;;5010153;28;20482;-48
2022/05/15 05:56:54;;;;;;;10.87;7.90;;;14.10;91.90;;;;;;5017595;28;20498;-49
2022/05/15 05:59:21;;;;;;;10.20;8.17;;;14.30;91.70;;;;;;5021314;28;20484;-50
2022/05/15 06:01:48;;;;;;;10.40;8.03;;;14.40;91.60;;;;;;5020776;28;20501;-51
2022/05/15 06:06:58;;;;;;;8.87;7.60;;;14.70;92.40;;;;;;5011414;28;21105;-49
2022/05/15 06:09:25;;;;;;;15.63;8.37;;;14.90;92.40;;;;;;5019249;28;20499;-49
2022/05/15 06:11:54;;;;;;;9.97;8.27;;;15.00;92.70;;;;;;5017403;28;20517;-49
2022/05/15 06:14:20;;;;;;;10.67;9.27;;;15.20;92.40;;;;;;5020311;28;20976;-50
2022/05/15 06:16:47;;;;;;;17.07;8.80;;;15.40;92.40;;;;;;5018348;28;20549;-49
2022/05/15 06:19:14;;;;;;;17.10;8.97;;;15.60;92.30;;;;;;5020601;28;20483;-49
2022/05/15 06:21:41;;;;;;;12.63;8.43;;;15.80;92.20;;;;;;5020121;28;20481;-49
2022/05/15 06:24:08;;;;;;;11.30;9.57;;;15.90;92.60;;;;;;5012421;28;20492;-49
2022/05/15 06:26:35;;;;;;;12.50;9.17;;;16.00;91.70;;;;;;5031049;28;20523;-50
2022/05/15 06:29:03;;;;;;;14.20;11.73;;;16.20;91.40;;;;;;5019368;28;20488;-50
2022/05/15 06:31:29;;;;;;;9.93;8.70;;;16.40;91.30;;;;;;5020000;28;20491;-50
2022/05/15 06:33:56;;;;;;;10.17;9.10;;;16.50;91.00;;;;;;5019806;28;20486;-50
2022/05/15 06:36:23;;;;;;;12.23;9.30;;;16.60;90.90;;;;;;5019197;28;21105;-51
2022/05/15 06:38:50;;;;;;;10.70;8.53;;;16.80;91.00;;;;;;5017894;28;20495;-54
2022/05/15 06:41:17;;;;;;;13.70;8.23;;;17.10;91.30;;;;;;5019746;28;20491;-51
2022/05/15 06:43:44;;;;;;;10.40;8.30;;;17.30;90.30;;;;;;5019480;28;20478;-50
2022/05/15 06:46:12;;;;;;;11.90;7.87;;;17.50;90.40;;;;;;5016470;28;20495;-51
2022/05/15 06:48:40;;;;;;;9.63;7.03;;;17.90;90.30;;;;;;5019753;28;20491;-51
2022/05/15 06:51:07;;;;;;;10.60;7.20;;;18.20;89.80;;;;;;5014306;28;20564;-51
2022/05/15 06:53:35;;;;;;;9.03;6.67;;;18.40;88.10;;;;;;5019415;28;21409;-51
2022/05/15 06:58:46;;;;;;;9.57;7.27;;;19.20;86.10;;;;;;5009577;28;20484;-52
2022/05/15 07:01:14;;;;;;;7.63;6.00;;;19.50;84.80;;;;;;5015299;28;20481;-51
2022/05/15 07:03:41;;;;;;;9.63;6.53;;;19.70;84.90;;;;;;5019266;28;20496;-52
2022/05/15 07:06:10;;;;;;;12.10;6.50;;;20.10;84.90;;;;;;5004218;28;20489;-52
2022/05/15 07:08:36;;;;;;;8.57;5.63;;;20.30;83.90;;;;;;5020164;28;21053;-53
2022/05/15 07:11:03;;;;;;;8.27;5.60;;;20.60;83.20;;;;;;5018860;28;20492;-52
2022/05/15 07:13:32;;;;;;;10.23;5.90;;;20.90;81.40;;;;;;5008556;28;20496;-53
2022/05/15 07:15:59;;;;;;;7.63;4.73;;;21.20;81.60;;;;;;5022620;28;20942;-53
2022/05/15 07:18:27;;;;;;;7.00;5.50;;;21.50;80.80;;;;;;5015036;28;20578;-54
2022/05/15 07:20:54;;;;;;;8.27;5.23;;;21.70;79.60;;;;;;5010493;28;20480;-53
2022/05/15 07:23:21;;;;;;;6.20;5.50;;;22.00;80.50;;;;;;5022402;28;20910;-53
2022/05/15 07:25:50;;;;;;;9.17;5.27;;;22.30;81.20;;;;;;5017853;28;20593;-53
2022/05/15 07:28:17;;;;;;;7.57;5.00;;;22.60;79.10;;;;;;5015011;28;20491;-54
2022/05/15 07:30:44;;;;;;;6.53;4.90;;;22.80;78.20;;;;;;5012019;28;20476;-53
2022/05/15 07:33:10;;;;;;;7.67;5.03;;;22.90;78.40;;;;;;5007057;28;20465;-53
2022/05/15 07:35:39;;;;;;;8.60;4.77;;;22.90;77.00;;;;;;5028780;28;20553;-53
2022/05/15 07:38:06;;;;;;;5.60;4.13;;;23.00;77.60;;;;;;5018941;28;20492;-54
2022/05/15 07:40:32;;;;;;;5.50;4.97;;;23.10;77.40;;;;;;5019246;28;20483;-53
2022/05/15 07:42:59;;;;;;;8.40;4.30;;;23.10;76.20;;;;;;5007974;28;20484;-53
2022/05/15 07:45:26;;;;;;;6.37;4.20;;;23.20;76.90;;;;;;5016995;28;20488;-54
2022/05/15 07:47:52;;;;;;;4.50;3.97;;;23.30;77.30;;;;;;5017349;28;20495;-54
2022/05/15 07:50:19;;;;;;;6.20;3.93;;;23.40;75.50;;;;;;5019093;28;20482;-53
2022/05/15 07:52:48;;;;;;;8.13;3.73;;;23.50;77.10;;;;;;4996137;28;20492;-54
2022/05/15 07:55:15;;;;;;;4.30;3.37;;;23.70;75.30;;;;;;5016592;28;20534;-54
2022/05/15 07:57:42;;;;;;;4.93;3.50;;;23.90;75.20;;;;;;5016097;28;20479;-54
2022/05/15 08:00:11;;;;;;;4.57;3.97;;;24.10;74.50;;;;;;5016952;28;20539;-54
2022/05/15 08:02:38;;;;;;;3.80;3.50;;;24.40;75.50;;;;;;5008641;28;20528;-54
2022/05/15 08:08:03;;;;;;;9.60;3.90;;;24.80;74.10;;;;;;5007306;28;20488;-55
2022/05/15 08:10:32;;;;;;;6.37;3.70;;;25.00;73.30;;;;;;4991743;28;20480;-55
2022/05/15 08:12:59;;;;;;;7.90;3.23;;;25.10;75.10;;;;;;5002350;28;21047;-55
2022/05/15 08:15:26;;;;;;;6.07;2.40;;;25.30;72.40;;;;;;4997174;28;21026;-55
2022/05/15 08:17:53;;;;;;;3.40;3.10;;;25.50;72.70;;;;;;4997091;28;20481;-55
2022/05/15 08:25:51;;;;;;;5.87;3.03;;;25.90;72.70;;;;;;4993492;28;20531;-55
2022/05/15 08:28:17;;;;;;;4.70;2.80;;;26.10;70.50;;;;;;5002978;28;20489;-55
2022/05/15 08:30:44;;;;;;;4.60;2.90;;;26.40;70.30;;;;;;4997920;28;20543;-56
2022/05/15 08:33:12;;;;;;;5.23;2.87;;;26.60;68.00;;;;;;5018872;28;20719;-56
2022/05/15 08:35:38;;;;;;;8.13;2.57;;;26.70;69.60;;;;;;5002964;28;21006;-54
2022/05/15 08:38:07;;;;;;;3.77;2.60;;;26.40;67.30;;;;;;5000797;28;20577;-55
2022/05/15 08:40:47;;;;;;;9.23;3.03;;;26.10;66.20;;;;;;5010327;28;20477;-55
2022/05/15 08:43:15;;;;;;;6.23;2.43;;;25.90;63.70;;;;;;5007613;28;20511;-56
2022/05/15 08:45:46;;;;;;;3.60;2.50;;;25.80;65.70;;;;;;5016420;28;20543;-56
2022/05/15 08:48:14;;;;;;;4.43;2.20;;;25.80;63.30;;;;;;5014261;28;20480;-55
2022/05/15 08:50:45;;;;;;;3.23;2.40;;;26.10;66.30;;;;;;5014086;28;20884;-56
2022/05/15 08:53:21;;;;;;;8.90;3.03;;;26.30;65.20;;;;;;5017617;28;20469;-56
2022/05/15 08:55:50;;;;;;;7.13;2.70;;;26.40;66.60;;;;;;5007611;28;20489;-56
2022/05/15 08:58:25;;;;;;;5.23;3.20;;;26.50;61.90;;;;;;5015899;28;20473;-56
2022/05/15 09:00:53;;;;;;;4.60;2.30;;;26.30;64.10;;;;;;5013202;28;20754;-56
2022/05/15 09:03:21;;;;;;;13.20;2.77;;;26.40;64.30;;;;;;5017179;28;20892;-56
2022/05/15 09:05:54;;;;;;;6.87;2.57;;;26.60;62.70;;;;;;5016021;28;21008;-57
2022/05/15 09:08:48;;;;;;;7.77;2.43;;;26.90;62.60;;;;;;5013507;28;21014;-57
2022/05/15 09:11:18;;;;;;;6.00;3.37;;;27.20;64.30;;;;;;5011246;28;20503;-57
2022/05/15 09:13:51;;;;;;;3.83;2.60;;;27.30;64.40;;;;;;5002059;28;20881;-57
2022/05/15 09:16:23;;;;;;;4.23;2.13;;;27.50;61.40;;;;;;5006723;28;20511;-62
2022/05/15 09:18:50;;;;;;;6.00;2.10;;;27.60;61.40;;;;;;5019935;28;20515;-57
2022/05/15 09:21:18;;;;;;;4.97;3.10;;;27.70;61.80;;;;;;5019249;28;20487;-57
2022/05/15 09:23:49;;;;;;;2.87;2.50;;;27.50;60.30;;;;;;5010134;28;20487;-57
2022/05/15 09:26:19;;;;;;;3.20;2.30;;;27.70;60.60;;;;;;4996306;28;20484;-57
2022/05/15 09:28:50;;;;;;;7.57;2.20;;;27.80;64.00;;;;;;4989101;28;21028;-57
2022/05/15 09:31:25;;;;;;;4.30;2.50;;;27.90;62.20;;;;;;4992205;28;20910;-57
2022/05/15 09:33:56;;;;;;;5.03;2.47;;;27.90;59.40;;;;;;5002662;28;20492;-58
2022/05/15 09:36:26;;;;;;;5.47;2.23;;;28.10;61.80;;;;;;5000846;28;20473;-57
2022/05/15 09:39:14;;;;;;;3.20;2.60;;;28.30;61.70;;;;;;4996119;28;20477;-58
2022/05/15 09:44:27;;;;;;;4.03;2.57;;;28.30;58.90;;;;;;4992237;28;20615;-57
2022/05/15 09:47:02;;;;;;;4.30;1.70;;;28.20;58.10;;;;;;4996800;28;20835;-58
2022/05/15 09:49:33;;;;;;;4.67;2.30;;;28.30;61.30;;;;;;4999937;28;20813;-58
2022/05/15 09:52:02;;;;;;;3.90;2.67;;;28.50;62.80;;;;;;4998346;28;20493;-58
2022/05/15 09:54:41;;;;;;;4.23;2.37;;;28.40;58.70;;;;;;4998897;28;20534;-58
2022/05/15 09:57:18;;;;;;;4.93;2.60;;;28.50;59.20;;;;;;4999577;28;20493;-57
2022/05/15 09:59:56;;;;;;;4.07;2.07;;;28.30;58.80;;;;;;4995514;28;20504;-58
2022/05/15 10:02:25;;;;;;;9.30;1.87;;;28.60;64.00;;;;;;4999306;28;20478;-58
2022/05/15 10:04:54;;;;;;;4.57;2.60;;;28.80;61.60;;;;;;4996647;28;20543;-59
2022/05/15 10:07:34;;;;;;;4.30;2.30;;;28.90;60.20;;;;;;4998099;28;20540;-63
2022/05/15 10:10:17;;;;;;;3.63;2.77;;;28.80;55.90;;;;;;4995936;28;20528;-59
2022/05/15 10:12:45;;;;;;;3.63;2.30;;;28.70;62.30;;;;;;5000235;28;20478;-60
2022/05/15 10:15:13;;;;;;;4.40;2.13;;;28.90;62.80;;;;;;4987802;28;20503;-60
2022/05/15 10:17:47;;;;;;;4.53;2.40;;;29.00;60.30;;;;;;4999977;28;20486;-60
2022/05/15 10:20:22;;;;;;;8.50;2.97;;;29.20;61.20;;;;;;4997565;28;20555;-60
2022/05/15 10:22:53;;;;;;;5.53;2.20;;;29.20;58.60;;;;;;4999986;28;20476;-60
2022/05/15 10:25:26;;;;;;;2.80;2.03;;;29.30;59.20;;;;;;5005750;28;20572;-60
2022/05/15 10:28:07;;;;;;;3.80;2.20;;;29.40;58.60;;;;;;5008909;28;20586;-61
2022/05/15 10:30:40;;;;;;;2.70;2.33;;;29.40;58.50;;;;;;5011875;28;20562;-59
2022/05/15 10:33:12;;;;;;;3.17;2.67;;;29.30;57.80;;;;;;5016791;28;20475;-58
2022/05/15 10:35:47;;;;;;;2.90;2.10;;;29.40;58.80;;;;;;4994194;28;20598;-60
2022/05/15 10:38:27;;;;;;;3.83;2.30;;;29.40;59.80;;;;;;4990471;28;20504;-63
2022/05/15 10:41:10;;;;;;;5.33;2.23;;;29.50;59.10;;;;;;4984847;28;20482;-60
2022/05/15 10:43:55;;;;;;;2.80;2.20;;;29.50;58.00;;;;;;4989915;28;20543;-59
2022/05/15 10:46:30;;;;;;;4.50;2.53;;;29.10;57.00;;;;;;4998556;28;20486;-59
2022/05/15 10:49:14;;;;;;;2.70;2.50;;;28.90;56.70;;;;;;5000072;28;20804;-61
2022/05/15 10:51:49;;;;;;;3.93;2.60;;;29.10;58.20;;;;;;4999548;28;20531;-60
2022/05/15 10:57:32;;;;;;;3.80;2.40;;;28.90;58.90;;;;;;4997810;28;20531;-60
2022/05/15 11:00:06;;;;;;;7.20;3.20;;;28.80;58.20;;;;;;5006989;28;20503;-61
2022/05/15 11:02:59;;;;;;;4.50;2.80;;;28.70;58.00;;;;;;5016067;28;20484;-60
2022/05/15 11:05:28;;;;;;;9.97;2.73;;;28.90;58.50;;;;;;5003321;28;20910;-62
2022/05/15 11:08:06;;;;;;;6.83;2.93;;;29.20;58.90;;;;;;5016362;28;20874;-65
2022/05/15 11:10:37;;;;;;;7.30;4.57;;;29.40;58.00;;;;;;4988132;28;20547;-63
2022/05/15 11:13:12;;;;;;;3.50;2.57;;;29.50;59.10;;;;;;4997962;28;20483;-59
2022/05/15 11:15:58;;;;;;;7.50;2.40;;;29.50;55.70;;;;;;4998649;28;21163;-62
2022/05/15 11:18:43;;;;;;;6.27;2.90;;;29.80;59.00;;;;;;4999751;28;20459;-64
2022/05/15 11:21:13;;;;;;;5.20;3.20;;;30.10;58.50;;;;;;4999425;28;20482;-61
2022/05/15 11:23:48;;;;;;;4.80;2.53;;;30.40;59.60;;;;;;4998418;28;20998;-63
2022/05/15 11:26:21;;;;;;;7.17;3.43;;;30.20;56.20;;;;;;4997820;28;21020;-62
2022/05/15 11:28:51;;;;;;;3.87;3.00;;;30.10;59.90;;;;;;4999147;28;21033;-62
2022/05/15 11:31:22;;;;;;;2.40;2.20;;;30.20;58.10;;;;;;4999714;28;20891;-61
2022/05/15 11:33:52;;;;;;;3.70;2.73;;;29.80;55.00;;;;;;4999003;28;20852;-63
2022/05/15 11:36:36;;;;;;;5.00;2.57;;;29.90;59.20;;;;;;4996558;28;20478;-62
2022/05/15 11:39:21;;;;;;;6.00;3.10;;;29.70;56.30;;;;;;4989185;28;20507;-62
2022/05/15 11:42:14;;;;;;;3.10;2.77;;;29.70;56.10;;;;;;4994681;28;20481;-60
2022/05/15 11:44:44;;;;;;;7.40;3.10;;;29.30;56.00;;;;;;5013279;28;20898;-61
2022/05/15 11:47:37;;;;;;;4.53;2.80;;;29.30;57.00;;;;;;5014541;28;20501;-64
2022/05/15 11:50:13;;;;;;;3.97;2.40;;;29.40;58.20;;;;;;4994038;28;20473;-63
2022/05/15 11:52:43;;;;;;;2.70;2.50;;;29.60;59.10;;;;;;5017146;28;20480;-61
2022/05/15 11:55:46;;;;;;;9.23;3.23;;;29.60;57.70;;;;;;5016897;28;20484;-63
2022/05/15 11:58:40;;;;;;;6.37;3.13;;;29.70;58.40;;;;;;5012617;28;20862;-62
2022/05/15 12:01:15;;;;;;;5.17;2.97;;;29.70;57.90;;;;;;5005711;28;21012;-62
2022/05/15 12:03:48;;;;;;;5.70;3.03;;;29.70;58.30;;;;;;5018815;28;20537;-62
2022/05/15 12:06:18;;;;;;;6.30;2.63;;;29.70;60.10;;;;;;5016761;28;20488;-58
2022/05/15 12:08:49;;;;;;;8.23;3.20;;;30.00;59.80;;;;;;5013772;28;20575;-69
2022/05/15 12:11:33;;;;;;;3.33;2.43;;;30.30;58.00;;;;;;5018940;28;20488;-61
2022/05/15 12:14:31;;;;;;;4.30;2.13;;;30.20;56.00;;;;;;5005995;28;20862;-64
2022/05/15 12:17:02;;;;;;;4.97;2.80;;;29.90;56.60;;;;;;4999895;28;20547;-65
2022/05/15 12:19:31;;;;;;;3.10;2.63;;;30.10;57.00;;;;;;5019164;28;20477;-63
2022/05/15 12:22:01;;;;;;;5.47;2.70;;;30.20;56.80;;;;;;5014964;28;20454;-65
2022/05/15 12:24:31;;;;;;;3.90;2.80;;;30.00;58.60;;;;;;5017041;28;20485;-64
2022/05/15 12:27:08;;;;;;;4.70;2.67;;;30.30;57.60;;;;;;5015062;28;20475;-67
2022/05/15 12:29:47;;;;;;;4.37;2.90;;;30.30;58.40;;;;;;5014644;28;20443;-65
2022/05/15 12:32:29;;;;;;;3.37;3.07;;;30.50;59.00;;;;;;5012360;28;20516;-64
2022/05/15 12:34:56;;;;;;;5.70;3.00;;;30.50;55.40;;;;;;5011485;28;20546;-65
2022/05/15 12:37:26;;;;;;;6.43;3.03;;;30.40;58.80;;;;;;5012889;28;20463;-64
2022/05/15 12:39:54;;;;;;;3.80;3.00;;;30.60;58.40;;;;;;5008023;28;20480;-66
2022/05/15 12:42:23;;;;;;;4.40;2.57;;;30.70;57.00;;;;;;5008685;28;20946;-66
2022/05/15 12:45:04;;;;;;;3.03;2.30;;;30.90;56.70;;;;;;5009472;28;20451;-72
2022/05/15 12:47:33;;;;;;;7.00;3.20;;;31.00;58.10;;;;;;5013595;28;20681;-67
2022/05/15 12:50:02;;;;;;;4.70;2.80;;;31.00;58.90;;;;;;5018895;28;20571;-70
2022/05/15 12:52:31;;;;;;;3.27;2.73;;;31.20;58.00;;;;;;5019385;28;20492;-65
2022/05/15 12:55:01;;;;;;;2.90;2.60;;;31.20;57.20;;;;;;5017815;28;20477;-63
2022/05/15 12:57:28;;;;;;;7.43;3.30;;;31.00;55.00;;;;;;5015742;28;20558;-65
2022/05/15 12:59:55;;;;;;;3.60;3.03;;;31.20;59.60;;;;;;5015610;28;20993;-65
2022/05/15 13:02:29;;;;;;;3.50;2.77;;;31.10;58.00;;;;;;5018696;28;20455;-65
2022/05/15 13:05:00;;;;;;;5.00;2.40;;;30.90;57.40;;;;;;5014606;28;20553;-67
2022/05/15 13:07:29;;;;;;;6.23;3.60;;;31.10;57.00;;;;;;5019203;28;20458;-68
2022/05/15 13:10:02;;;;;;;5.10;3.00;;;31.20;56.90;;;;;;5020719;28;21239;-68
2022/05/15 13:12:29;;;;;;;4.60;3.50;;;31.10;55.90;;;;;;5022099;28;21044;-68
2022/05/15 13:14:57;;;;;;;14.20;3.60;;;31.20;56.30;;;;;;5017800;28;20478;-69
2022/05/15 13:17:32;;;;;;;4.17;2.97;;;31.30;57.50;;;;;;5020991;28;20532;-67
2022/05/15 13:20:04;;;;;;;3.03;2.73;;;31.30;57.80;;;;;;5018081;28;20467;-67
2022/05/15 13:22:32;;;;;;;9.60;3.40;;;31.60;57.60;;;;;;5019169;28;20447;-67
2022/05/15 13:25:05;;;;;;;4.17;2.67;;;31.30;57.00;;;;;;5017374;28;20488;-67